createdAt,value
2022-09-23T00:00:44.961Z,11.39
2022-09-23T00:03:12.170Z,11.27
2022-09-23T00:05:38.956Z,11.25
2022-09-23T00:08:08.015Z,11.28
2022-09-23T00:10:37.492Z,11.27
2022-09-23T00:13:05.783Z,11.28
2022-09-23T00:15:37.142Z,11.30
2022-09-23T00:18:03.778Z,11.32
2022-09-23T00:20:30.175Z,11.34
2022-09-23T00:22:57.707Z,11.43
2022-09-23T00:25:25.104Z,11.42
2022-09-23T00:27:51.503Z,11.34
2022-09-23T00:30:18.467Z,11.32
2022-09-23T00:32:44.898Z,11.38
2022-09-23T00:35:11.409Z,11.44
2022-09-23T00:37:37.818Z,11.37
2022-09-23T00:40:04.717Z,11.22
2022-09-23T00:42:31.255Z,11.15
2022-09-23T00:44:59.279Z,11.06
2022-09-23T00:47:50.438Z,11.06
2022-09-23T00:50:35.065Z,11.08
2022-09-23T00:53:05.462Z,11.10
2022-09-23T00:55:39.429Z,11.09
2022-09-23T00:58:08.755Z,11.13
2022-09-23T01:00:35.607Z,11.16
2022-09-23T01:03:04.202Z,11.16
2022-09-23T01:05:31.998Z,11.18
2022-09-23T01:08:00.817Z,11.06
2022-09-23T01:10:35.593Z,10.96
2022-09-23T01:13:24.291Z,10.76
2022-09-23T01:16:05.759Z,10.69
2022-09-23T01:18:43.506Z,10.67
2022-09-23T01:21:23.876Z,10.63
2022-09-23T01:24:11.518Z,10.64
2022-09-23T01:27:02.732Z,10.68
2022-09-23T01:29:48.009Z,10.72
2022-09-23T01:32:33.155Z,10.70
2022-09-23T01:35:11.737Z,10.69
2022-09-23T01:37:52.124Z,10.74
2022-09-23T01:40:34.158Z,10.72
2022-09-23T01:43:13.186Z,10.73
2022-09-23T01:45:46.986Z,10.75
2022-09-23T01:48:26.709Z,10.72
2022-09-23T01:51:00.420Z,10.77
2022-09-23T01:53:37.853Z,10.78
2022-09-23T01:56:20.969Z,10.69
2022-09-23T01:59:09.307Z,10.74
2022-09-23T02:02:00.997Z,10.71
2022-09-23T02:04:39.618Z,10.70
2022-09-23T02:07:15.147Z,10.73
2022-09-23T02:09:48.892Z,10.73
2022-09-23T02:12:20.191Z,10.68
2022-09-23T02:15:02.577Z,10.62
2022-09-23T02:17:48.327Z,10.58
2022-09-23T02:20:20.836Z,10.61
2022-09-23T02:23:10.241Z,10.65
2022-09-23T02:26:02.959Z,10.64
2022-09-23T02:28:43.298Z,10.64
2022-09-23T02:31:19.972Z,10.68
2022-09-23T02:33:55.314Z,10.67
2022-09-23T02:36:34.615Z,10.76
2022-09-23T02:39:06.002Z,10.80
2022-09-23T02:41:39.897Z,10.80
2022-09-23T02:44:12.836Z,10.84
2022-09-23T02:46:39.759Z,10.70
2022-09-23T02:49:12.584Z,10.50
2022-09-23T02:51:40.397Z,10.42
2022-09-23T02:54:10.628Z,10.34
2022-09-23T02:56:37.486Z,10.35
2022-09-23T02:59:06.041Z,10.33
2022-09-23T03:01:47.635Z,10.38
2022-09-23T03:04:35.054Z,10.47
2022-09-23T03:07:06.313Z,10.44
2022-09-23T03:09:39.999Z,10.52
2022-09-23T03:12:25.183Z,10.46
2022-09-23T03:15:01.976Z,10.40
2022-09-23T03:17:54.721Z,10.39
2022-09-23T03:20:32.086Z,10.45
2022-09-23T03:23:02.871Z,10.51
2022-09-23T03:25:34.838Z,10.61
2022-09-23T03:28:03.699Z,10.61
2022-09-23T03:30:35.498Z,10.49
2022-09-23T03:33:05.608Z,10.40
2022-09-23T03:35:55.643Z,10.30
2022-09-23T03:38:25.930Z,10.24
2022-09-23T03:40:55.820Z,10.28
2022-09-23T03:43:22.394Z,10.33
2022-09-23T03:45:48.939Z,10.40
2022-09-23T03:48:15.675Z,10.40
2022-09-23T03:50:42.095Z,10.38
2022-09-23T03:53:08.530Z,10.44
2022-09-23T03:55:34.985Z,10.53
2022-09-23T03:58:04.789Z,10.47
2022-09-23T04:00:31.278Z,10.39
2022-09-23T04:02:57.762Z,10.34
2022-09-23T04:05:24.174Z,10.35
2022-09-23T04:07:51.082Z,10.32
2022-09-23T04:10:17.588Z,10.27
2022-09-23T04:12:43.978Z,10.27
2022-09-23T04:15:10.680Z,10.25
2022-09-23T04:17:37.163Z,10.29
2022-09-23T04:20:04.050Z,10.33
2022-09-23T04:22:31.018Z,10.40
2022-09-23T04:24:57.458Z,10.47
2022-09-23T04:27:24.023Z,10.49
2022-09-23T04:29:50.828Z,10.48
2022-09-23T04:32:17.249Z,10.50
2022-09-23T04:34:43.666Z,10.53
2022-09-23T04:37:10.059Z,10.58
2022-09-23T04:39:36.497Z,10.61
2022-09-23T04:42:04.039Z,10.72
2022-09-23T04:44:30.559Z,10.76
2022-09-23T04:46:57.054Z,10.82
2022-09-23T04:49:23.565Z,10.86
2022-09-23T04:51:49.990Z,10.87
2022-09-23T04:54:16.392Z,10.88
2022-09-23T04:56:42.866Z,10.84
2022-09-23T04:59:09.298Z,10.83
2022-09-23T05:01:36.473Z,10.80
2022-09-23T05:04:06.566Z,10.80
2022-09-23T05:06:34.940Z,10.84
2022-09-23T05:09:05.458Z,10.89
2022-09-23T05:11:32.330Z,10.88
2022-09-23T05:13:58.983Z,10.95
2022-09-23T05:16:26.775Z,11.02
2022-09-23T05:18:53.894Z,11.05
2022-09-23T05:21:23.340Z,11.06
2022-09-23T05:23:55.405Z,11.09
2022-09-23T05:26:25.336Z,11.09
2022-09-23T05:28:52.665Z,11.04
2022-09-23T05:31:21.530Z,11.12
2022-09-23T05:33:57.220Z,11.16
2022-09-23T05:36:25.150Z,11.23
2022-09-23T05:38:51.845Z,11.20
2022-09-23T05:41:20.813Z,11.18
2022-09-23T05:43:47.479Z,11.15
2022-09-23T05:46:19.786Z,11.15
2022-09-23T05:48:47.540Z,11.16
2022-09-23T05:51:20.100Z,11.22
2022-09-23T05:53:47.673Z,11.21
2022-09-23T05:56:19.264Z,11.17
2022-09-23T05:58:45.722Z,11.18
2022-09-23T06:01:14.987Z,11.26
2022-09-23T06:03:41.654Z,11.34
2022-09-23T06:06:14.533Z,11.33
2022-09-23T06:08:42.002Z,11.31
2022-09-23T06:11:08.765Z,11.35
2022-09-23T06:13:39.299Z,11.33
2022-09-23T06:16:08.025Z,11.33
2022-09-23T06:18:35.646Z,11.38
2022-09-23T06:21:02.811Z,11.40
2022-09-23T06:23:30.298Z,11.47
2022-09-23T06:26:04.385Z,11.49
2022-09-23T06:28:32.983Z,11.49
2022-09-23T06:31:01.083Z,11.49
2022-09-23T06:33:36.260Z,11.56
2022-09-23T06:36:05.977Z,11.62
2022-09-23T06:38:34.068Z,11.66
2022-09-23T06:41:01.484Z,11.57
2022-09-23T06:43:28.010Z,11.66
2022-09-23T06:45:54.988Z,11.65
2022-09-23T06:48:22.668Z,11.70
2022-09-23T06:50:49.385Z,11.75
2022-09-23T06:53:17.058Z,11.76
2022-09-23T06:55:44.311Z,11.79
2022-09-23T06:58:10.902Z,11.84
2022-09-23T07:00:37.763Z,11.94
2022-09-23T07:03:08.504Z,12.02
2022-09-23T07:05:35.790Z,12.11
2022-09-23T07:08:03.278Z,12.16
2022-09-23T07:10:30.873Z,12.23
2022-09-23T07:13:01.502Z,12.31
2022-09-23T07:15:27.988Z,12.37
2022-09-23T07:17:54.391Z,12.44
2022-09-23T07:20:20.835Z,12.53
2022-09-23T07:22:52.132Z,12.64
2022-09-23T07:25:19.834Z,12.78
2022-09-23T07:27:48.111Z,12.90
2022-09-23T07:30:23.154Z,13.05
2022-09-23T07:32:52.124Z,13.09
2022-09-23T07:35:19.476Z,13.08
2022-09-23T07:37:46.359Z,13.00
2022-09-23T07:40:12.911Z,13.06
2022-09-23T07:42:40.823Z,13.04
2022-09-23T07:45:09.017Z,13.11
2022-09-23T07:47:35.912Z,13.20
2022-09-23T07:50:02.410Z,13.25
2022-09-23T07:52:28.827Z,13.23
2022-09-23T07:54:55.269Z,13.17
2022-09-23T07:57:21.804Z,13.13
2022-09-23T07:59:48.255Z,13.25
2022-09-23T08:02:16.402Z,13.24
2022-09-23T08:04:42.946Z,13.29
2022-09-23T08:07:12.921Z,13.32
2022-09-23T08:09:42.099Z,13.51
2022-09-23T08:12:15.771Z,13.59
2022-09-23T08:14:43.072Z,13.68
2022-09-23T08:17:11.282Z,13.67
2022-09-23T08:19:37.704Z,13.73
2022-09-23T08:22:04.202Z,13.78
2022-09-23T08:24:32.207Z,13.83
2022-09-23T08:26:59.041Z,13.81
2022-09-23T08:29:26.310Z,13.79
2022-09-23T08:31:53.564Z,13.96
2022-09-23T08:34:21.642Z,14.07
2022-09-23T08:36:48.228Z,14.08
2022-09-23T08:39:20.190Z,14.10
2022-09-23T08:42:06.750Z,14.21
2022-09-23T08:44:46.072Z,14.38
2022-09-23T08:47:12.485Z,14.43
2022-09-23T08:49:45.573Z,14.52
2022-09-23T08:52:23.362Z,14.45
2022-09-23T08:54:55.152Z,14.53
2022-09-23T08:58:02.409Z,14.58
2022-09-23T09:00:45.017Z,14.64
2022-09-23T09:03:24.787Z,14.67
2022-09-23T09:05:54.493Z,14.72
2022-09-23T09:08:31.612Z,14.76
2022-09-23T09:10:58.990Z,14.80
2022-09-23T09:13:30.522Z,14.90
2022-09-23T09:16:23.909Z,15.05
2022-09-23T09:19:07.355Z,15.19
2022-09-23T09:21:41.079Z,15.32
2022-09-23T09:24:17.678Z,15.40
2022-09-23T09:26:44.111Z,15.44
2022-09-23T09:29:39.885Z,15.48
2022-09-23T09:32:22.978Z,15.61
2022-09-23T09:34:54.681Z,15.62
2022-09-23T09:37:35.777Z,15.73
2022-09-23T09:40:03.255Z,15.85
2022-09-23T09:42:40.197Z,15.84
2022-09-23T09:45:24.171Z,15.95
2022-09-23T09:48:11.587Z,16.03
2022-09-23T09:50:45.965Z,16.09
2022-09-23T09:53:16.637Z,16.21
2022-09-23T09:55:43.098Z,16.32
2022-09-23T09:58:16.232Z,16.37
2022-09-23T10:00:45.682Z,16.36
2022-09-23T10:03:14.905Z,16.44
2022-09-23T10:05:44.894Z,16.47
2022-09-23T10:08:32.325Z,16.56
2022-09-23T10:10:58.700Z,16.68
2022-09-23T10:13:27.248Z,16.76
2022-09-23T10:15:54.976Z,16.69
2022-09-23T10:18:35.833Z,16.76
2022-09-23T10:21:13.274Z,16.74
2022-09-23T10:23:51.402Z,16.84
2022-09-23T10:26:26.087Z,16.94
2022-09-23T10:28:55.551Z,17.07
2022-09-23T10:31:32.683Z,17.16
2022-09-23T10:34:01.959Z,17.14
2022-09-23T10:36:31.363Z,17.16
2022-09-23T10:39:19.402Z,17.17
2022-09-23T10:42:18.005Z,17.19
2022-09-23T10:45:19.829Z,17.17
2022-09-23T10:47:49.033Z,17.22
2022-09-23T10:50:18.539Z,17.21
2022-09-23T10:53:07.837Z,17.22
2022-09-23T10:55:50.161Z,17.23
2022-09-23T10:58:44.281Z,17.25
2022-09-23T11:01:12.086Z,17.25
2022-09-23T11:03:58.284Z,17.26
2022-09-23T11:06:45.755Z,17.28
2022-09-23T11:09:27.391Z,17.30
2022-09-23T11:12:12.462Z,17.33
2022-09-23T11:15:12.019Z,17.32
2022-09-23T11:18:05.812Z,17.31
2022-09-23T11:20:45.392Z,17.33
2022-09-23T11:23:37.125Z,17.40
2022-09-23T11:26:22.243Z,17.48
2022-09-23T11:28:55.076Z,17.50
2022-09-23T11:31:58.770Z,17.55
2022-09-23T11:34:32.766Z,17.62
2022-09-23T11:37:25.537Z,17.67
2022-09-23T11:40:12.112Z,17.77
2022-09-23T11:42:46.851Z,17.89
2022-09-23T11:45:25.773Z,18.05
2022-09-23T11:47:57.951Z,18.18
2022-09-23T11:50:45.927Z,18.24
2022-09-23T11:53:21.121Z,18.23
2022-09-23T11:55:58.246Z,18.26
2022-09-23T12:01:34.647Z,18.24
2022-09-23T12:04:17.728Z,18.21
2022-09-23T12:06:50.076Z,18.23
2022-09-23T12:09:47.351Z,18.23
2022-09-23T12:12:41.095Z,18.21
2022-09-23T12:15:28.859Z,18.21
2022-09-23T12:18:14.036Z,18.21
2022-09-23T12:20:56.530Z,18.19
2022-09-23T12:23:52.284Z,18.17
2022-09-23T12:26:23.095Z,18.17
2022-09-23T12:28:53.136Z,18.16
2022-09-23T12:31:23.032Z,18.17
2022-09-23T12:33:52.234Z,18.21
2022-09-23T12:36:36.292Z,18.26
2022-09-23T12:39:04.803Z,18.32
2022-09-23T12:41:37.515Z,18.35
2022-09-23T12:44:23.268Z,18.35
2022-09-23T12:47:20.895Z,18.44
2022-09-23T12:49:48.487Z,18.44
2022-09-23T12:52:17.780Z,18.49
2022-09-23T12:54:45.340Z,18.56
2022-09-23T12:57:33.389Z,18.54
2022-09-23T13:00:14.271Z,18.54
2022-09-23T13:03:16.013Z,18.63
2022-09-23T13:06:05.888Z,18.59
2022-09-23T13:08:35.794Z,18.62
2022-09-23T13:11:05.325Z,18.60
2022-09-23T13:13:41.179Z,18.59
2022-09-23T13:16:12.732Z,18.53
2022-09-23T13:19:20.917Z,18.53
2022-09-23T13:21:47.323Z,18.56
2022-09-23T13:24:14.273Z,18.50
2022-09-23T13:26:46.534Z,18.48
2022-09-23T13:29:25.527Z,18.40
2022-09-23T13:31:53.368Z,18.37
2022-09-23T13:34:22.961Z,18.29
2022-09-23T13:36:49.392Z,18.28
2022-09-23T13:39:22.221Z,18.21
2022-09-23T13:41:49.089Z,18.24
2022-09-23T13:44:20.028Z,18.28
2022-09-23T13:46:52.829Z,18.30
2022-09-23T13:49:36.440Z,18.32
2022-09-23T13:52:03.980Z,18.34
2022-09-23T13:54:36.237Z,18.31
2022-09-23T13:57:03.804Z,18.22
2022-09-23T13:59:41.980Z,18.14
2022-09-23T14:02:14.070Z,18.07
2022-09-23T14:04:41.194Z,18.00
2022-09-23T14:07:10.808Z,18.02
2022-09-23T14:09:41.261Z,18.05
2022-09-23T14:12:10.274Z,18.05
2022-09-23T14:14:39.302Z,18.05
2022-09-23T14:17:07.340Z,18.04
2022-09-23T14:19:36.823Z,18.07
2022-09-23T14:22:03.744Z,18.10
2022-09-23T14:24:30.087Z,18.09
2022-09-23T14:27:01.417Z,18.09
2022-09-23T14:29:33.802Z,18.04
2022-09-23T14:32:06.723Z,18.04
2022-09-23T14:34:49.777Z,18.06
2022-09-23T14:37:40.380Z,18.08
2022-09-23T14:40:16.737Z,18.01
2022-09-23T14:42:48.061Z,17.94
2022-09-23T14:45:21.746Z,17.91
2022-09-23T14:48:04.795Z,17.88
2022-09-23T14:50:47.114Z,17.84
2022-09-23T14:53:22.851Z,17.86
2022-09-23T14:55:57.331Z,17.87
2022-09-23T14:58:28.615Z,17.92
2022-09-23T15:00:59.390Z,17.97
2022-09-23T15:03:28.370Z,17.95
2022-09-23T15:06:08.507Z,17.94
2022-09-23T15:08:35.931Z,17.96
2022-09-23T15:11:08.063Z,17.94
2022-09-23T15:13:40.394Z,17.90
2022-09-23T15:16:07.787Z,17.91
2022-09-23T15:18:41.518Z,17.89
2022-09-23T15:21:10.084Z,17.93
2022-09-23T15:23:56.502Z,17.88
2022-09-23T15:26:25.706Z,17.89
2022-09-23T15:28:55.886Z,17.88
2022-09-23T15:31:26.396Z,17.86
2022-09-23T15:33:53.105Z,17.84
2022-09-23T15:36:22.946Z,17.82
2022-09-23T15:38:49.518Z,17.81
2022-09-23T15:41:17.368Z,17.78
2022-09-23T15:43:44.535Z,17.76
2022-09-23T15:46:21.121Z,17.77
2022-09-23T15:49:15.289Z,17.78
2022-09-23T15:51:42.987Z,17.73
2022-09-23T15:54:12.381Z,17.70
2022-09-23T15:56:38.804Z,17.68
2022-09-23T15:59:06.302Z,17.67
2022-09-23T16:01:36.528Z,17.64
2022-09-23T16:04:04.456Z,17.60
2022-09-23T16:06:31.854Z,17.58
2022-09-23T16:08:58.253Z,17.52
2022-09-23T16:11:33.058Z,17.49
2022-09-23T16:14:03.282Z,17.43
2022-09-23T16:16:30.093Z,17.40
2022-09-23T16:18:56.662Z,17.37
2022-09-23T16:21:28.453Z,17.32
2022-09-23T16:23:55.256Z,17.26
2022-09-23T16:26:24.388Z,17.23
2022-09-23T16:28:53.181Z,17.15
2022-09-23T16:31:20.529Z,17.06
2022-09-23T16:33:48.661Z,17.02
2022-09-23T16:36:31.085Z,16.97
2022-09-23T16:39:03.927Z,16.92
2022-09-23T16:41:31.532Z,16.91
2022-09-23T16:44:00.778Z,16.89
2022-09-23T16:46:29.218Z,16.87
2022-09-23T16:48:57.515Z,16.77
2022-09-23T16:51:30.511Z,16.67
2022-09-23T16:53:58.787Z,16.61
2022-09-23T16:56:29.141Z,16.51
2022-09-23T16:58:56.743Z,16.36
2022-09-23T17:01:47.234Z,16.36
2022-09-23T17:04:15.784Z,16.30
2022-09-23T17:06:50.631Z,16.27
2022-09-23T17:09:19.997Z,16.26
2022-09-23T17:11:53.100Z,16.22
2022-09-23T17:14:19.530Z,16.18
2022-09-23T17:16:48.934Z,16.16
2022-09-23T17:19:15.427Z,16.13
2022-09-23T17:21:42.643Z,16.11
2022-09-23T17:24:09.844Z,16.10
2022-09-23T17:26:36.261Z,16.08
2022-09-23T17:29:02.807Z,16.02
2022-09-23T17:31:30.591Z,15.98
2022-09-23T17:33:57.263Z,15.89
2022-09-23T17:36:23.910Z,15.81
2022-09-23T17:38:53.431Z,15.73
2022-09-23T17:41:20.888Z,15.68
2022-09-23T17:43:47.859Z,15.68
2022-09-23T17:46:18.182Z,15.67
2022-09-23T17:48:45.598Z,15.61
2022-09-23T17:51:17.431Z,15.61
2022-09-23T17:53:46.484Z,15.58
2022-09-23T17:56:26.978Z,15.53
2022-09-23T17:58:54.115Z,15.54
2022-09-23T18:01:26.117Z,15.55
2022-09-23T18:03:58.356Z,15.58
2022-09-23T18:06:27.123Z,15.57
2022-09-23T18:08:55.814Z,15.58
2022-09-23T18:11:24.571Z,15.54
2022-09-23T18:13:55.192Z,15.47
2022-09-23T18:16:25.201Z,15.45
2022-09-23T18:18:56.639Z,15.46
2022-09-23T18:21:24.823Z,15.48
2022-09-23T18:23:51.757Z,15.53
2022-09-23T18:26:21.308Z,15.54
2022-09-23T18:28:48.261Z,15.61
2022-09-23T18:31:17.062Z,15.65
2022-09-23T18:33:43.612Z,15.64
2022-09-23T18:36:10.100Z,15.64
2022-09-23T18:38:36.562Z,15.59
2022-09-23T18:41:03.324Z,15.57
2022-09-23T18:43:37.279Z,15.63
2022-09-23T18:46:11.744Z,15.67
2022-09-23T18:48:56.883Z,15.67
2022-09-23T18:51:26.027Z,15.68
2022-09-23T18:53:57.579Z,15.67
2022-09-23T18:56:41.998Z,15.68
2022-09-23T18:59:12.789Z,15.69
2022-09-23T19:01:39.481Z,15.69
2022-09-23T19:04:07.101Z,15.65
2022-09-23T19:06:35.126Z,15.63
2022-09-23T19:09:01.753Z,15.61
2022-09-23T19:11:28.163Z,15.62
2022-09-23T19:13:56.425Z,15.65
2022-09-23T19:16:24.244Z,15.63
2022-09-23T19:18:51.262Z,15.64
2022-09-23T19:21:20.495Z,15.60
2022-09-23T19:23:52.948Z,15.59
2022-09-23T19:26:22.863Z,15.59
2022-09-23T19:28:53.866Z,15.54
2022-09-23T19:31:23.367Z,15.49
2022-09-23T19:33:56.360Z,15.50
2022-09-23T19:36:28.356Z,15.43
2022-09-23T19:38:56.623Z,15.37
2022-09-23T19:41:24.285Z,15.36
2022-09-23T19:43:52.780Z,15.34
2022-09-23T19:46:19.460Z,15.35
2022-09-23T19:48:46.831Z,15.35
2022-09-23T19:51:13.236Z,15.34
2022-09-23T19:53:42.617Z,15.35
2022-09-23T19:56:09.272Z,15.38
2022-09-23T19:58:35.698Z,15.41
2022-09-23T20:01:07.327Z,15.33
2022-09-23T20:03:33.827Z,15.28
2022-09-23T20:06:00.289Z,15.28
2022-09-23T20:08:29.363Z,15.21
2022-09-23T20:10:55.789Z,15.14
2022-09-23T20:13:22.357Z,15.14
2022-09-23T20:15:49.159Z,15.14
2022-09-23T20:18:15.607Z,15.14
2022-09-23T20:20:42.382Z,15.17
2022-09-23T20:23:08.822Z,15.12
2022-09-23T20:25:53.957Z,15.10
2022-09-23T20:28:21.242Z,15.05
2022-09-23T20:30:47.890Z,15.00
2022-09-23T20:33:15.137Z,14.90
2022-09-23T20:35:43.951Z,14.88
2022-09-23T20:38:10.568Z,14.83
2022-09-23T20:40:38.536Z,14.82
2022-09-23T20:43:05.166Z,14.83
2022-09-23T20:45:31.837Z,14.86
2022-09-23T20:48:00.146Z,14.88
2022-09-23T20:50:26.704Z,14.88
2022-09-23T20:52:53.249Z,14.88
2022-09-23T20:55:19.667Z,14.86
2022-09-23T20:57:48.593Z,14.85
2022-09-23T21:00:15.330Z,14.83
2022-09-23T21:02:43.550Z,14.85
2022-09-23T21:05:10.492Z,14.87
2022-09-23T21:07:37.498Z,14.86
2022-09-23T21:10:06.877Z,14.84
2022-09-23T21:12:33.298Z,14.82
2022-09-23T21:14:59.708Z,14.82
2022-09-23T21:17:26.852Z,14.87
2022-09-23T21:19:53.335Z,14.85
2022-09-23T21:22:19.789Z,14.77
2022-09-23T21:25:25.923Z,14.79
2022-09-23T21:27:37.022Z,14.82
2022-09-23T21:30:04.548Z,14.83
2022-09-23T21:32:31.228Z,14.82
2022-09-23T21:34:57.642Z,14.78
2022-09-23T21:37:25.426Z,14.80
2022-09-23T21:40:10.521Z,14.75
2022-09-23T21:42:37.180Z,14.71
2022-09-23T21:45:04.226Z,14.67
2022-09-23T21:47:31.433Z,14.68
2022-09-23T21:49:57.858Z,14.67
2022-09-23T21:52:24.250Z,14.64
2022-09-23T21:54:50.665Z,14.60
2022-09-23T21:57:17.058Z,14.60
2022-09-23T21:59:43.475Z,14.60
2022-09-23T22:02:09.871Z,14.57
2022-09-23T22:04:36.341Z,14.53
2022-09-23T22:07:02.785Z,14.48
2022-09-23T22:09:29.204Z,14.45
2022-09-23T22:12:12.692Z,14.41
2022-09-23T22:14:39.863Z,14.39
2022-09-23T22:17:08.009Z,14.37
2022-09-23T22:19:39.374Z,14.37
2022-09-23T22:22:13.122Z,14.36
2022-09-23T22:24:43.733Z,14.35
2022-09-23T22:27:12.151Z,14.35
2022-09-23T22:29:57.221Z,14.29
2022-09-23T22:32:43.476Z,14.26
2022-09-23T22:35:13.428Z,14.24
2022-09-23T22:37:39.901Z,14.25
2022-09-23T22:40:09.520Z,14.27
2022-09-23T22:42:36.498Z,14.25
2022-09-23T22:45:05.727Z,14.28
2022-09-23T22:47:37.641Z,14.32
2022-09-23T22:50:05.804Z,14.32
2022-09-23T22:52:33.358Z,14.30
2022-09-23T22:55:00.300Z,14.28
2022-09-23T22:57:26.842Z,14.23
2022-09-23T22:59:53.277Z,14.20
2022-09-23T23:02:21.822Z,14.21
2022-09-23T23:04:48.936Z,14.19
2022-09-23T23:07:20.252Z,14.16
2022-09-23T23:09:51.003Z,14.15
2022-09-23T23:12:20.040Z,14.13
2022-09-23T23:14:47.762Z,14.10
2022-09-23T23:17:14.559Z,14.09
2022-09-23T23:19:41.007Z,14.08
2022-09-23T23:22:07.455Z,14.04
2022-09-23T23:24:33.942Z,14.02
2022-09-23T23:27:00.388Z,14.02
2022-09-23T23:29:27.768Z,14.01
2022-09-23T23:31:54.322Z,13.98
2022-09-23T23:34:21.478Z,13.93
2022-09-23T23:36:54.443Z,13.89
2022-09-23T23:39:23.540Z,13.83
2022-09-23T23:41:54.978Z,13.82
2022-09-23T23:44:23.687Z,13.81
2022-09-23T23:46:50.447Z,13.77
2022-09-23T23:49:16.970Z,13.74
2022-09-23T23:51:43.469Z,13.75
2022-09-23T23:54:11.583Z,13.77
2022-09-23T23:56:38.036Z,13.74
2022-09-23T23:59:04.487Z,13.75
